sensor_id;sensor_type;location;lat;lon;timestamp;temperature;humidity
78647;DHT22;67961;43.460;3.762;2023-11-22T00:00:07;12.40;52.40
78647;DHT22;67961;43.460;3.762;2023-11-22T00:02:33;12.30;52.30
78647;DHT22;67961;43.460;3.762;2023-11-22T00:05:00;12.30;52.50
78647;DHT22;67961;43.460;3.762;2023-11-22T00:07:25;12.30;52.50
78647;DHT22;67961;43.460;3.762;2023-11-22T00:09:54;12.30;52.70
78647;DHT22;67961;43.460;3.762;2023-11-22T00:12:20;12.30;52.60
78647;DHT22;67961;43.460;3.762;2023-11-22T00:14:46;12.20;52.80
78647;DHT22;67961;43.460;3.762;2023-11-22T00:17:13;12.20;52.70
78647;DHT22;67961;43.460;3.762;2023-11-22T00:19:38;12.20;52.70
78647;DHT22;67961;43.460;3.762;2023-11-22T00:22:04;12.20;52.60
78647;DHT22;67961;43.460;3.762;2023-11-22T00:24:38;12.20;52.80
78647;DHT22;67961;43.460;3.762;2023-11-22T00:27:05;12.20;53.10
78647;DHT22;67961;43.460;3.762;2023-11-22T00:29:30;12.10;53.20
78647;DHT22;67961;43.460;3.762;2023-11-22T00:31:56;12.10;53.00
78647;DHT22;67961;43.460;3.762;2023-11-22T00:34:21;12.10;53.00
78647;DHT22;67961;43.460;3.762;2023-11-22T00:36:48;12.00;53.30
78647;DHT22;67961;43.460;3.762;2023-11-22T00:39:14;12.00;53.30
78647;DHT22;67961;43.460;3.762;2023-11-22T00:41:40;12.00;53.30
78647;DHT22;67961;43.460;3.762;2023-11-22T00:44:05;12.00;53.10
78647;DHT22;67961;43.460;3.762;2023-11-22T00:46:34;11.90;53.30
78647;DHT22;67961;43.460;3.762;2023-11-22T00:49:00;11.90;53.60
78647;DHT22;67961;43.460;3.762;2023-11-22T00:51:25;11.90;53.60
78647;DHT22;67961;43.460;3.762;2023-11-22T00:53:51;11.90;53.80
78647;DHT22;67961;43.460;3.762;2023-11-22T00:56:17;11.80;53.70
78647;DHT22;67961;43.460;3.762;2023-11-22T00:58:43;11.90;53.90
78647;DHT22;67961;43.460;3.762;2023-11-22T01:01:08;11.90;53.80
78647;DHT22;67961;43.460;3.762;2023-11-22T01:03:34;11.90;53.50
78647;DHT22;67961;43.460;3.762;2023-11-22T01:06:03;11.90;53.30
78647;DHT22;67961;43.460;3.762;2023-11-22T01:08:28;11.90;53.40
78647;DHT22;67961;43.460;3.762;2023-11-22T01:10:54;11.90;52.70
78647;DHT22;67961;43.460;3.762;2023-11-22T01:13:22;11.90;52.80
78647;DHT22;67961;43.460;3.762;2023-11-22T01:15:48;11.90;52.80
78647;DHT22;67961;43.460;3.762;2023-11-22T01:18:13;11.90;52.50
78647;DHT22;67961;43.460;3.762;2023-11-22T01:20:39;11.90;52.40
78647;DHT22;67961;43.460;3.762;2023-11-22T01:23:05;11.90;52.50
78647;DHT22;67961;43.460;3.762;2023-11-22T01:25:31;11.90;51.90
78647;DHT22;67961;43.460;3.762;2023-11-22T01:27:56;11.90;52.60
78647;DHT22;67961;43.460;3.762;2023-11-22T01:30:22;11.90;52.50
78647;DHT22;67961;43.460;3.762;2023-11-22T01:32:48;11.90;52.10
78647;DHT22;67961;43.460;3.762;2023-11-22T01:35:14;11.90;52.30
78647;DHT22;67961;43.460;3.762;2023-11-22T01:37:41;11.90;52.30
78647;DHT22;67961;43.460;3.762;2023-11-22T01:40:08;11.90;52.40
78647;DHT22;67961;43.460;3.762;2023-11-22T01:42:34;11.90;52.20
78647;DHT22;67961;43.460;3.762;2023-11-22T01:45:03;11.90;52.80
78647;DHT22;67961;43.460;3.762;2023-11-22T01:47:29;11.90;52.30
78647;DHT22;67961;43.460;3.762;2023-11-22T01:49:54;11.90;52.50
78647;DHT22;67961;43.460;3.762;2023-11-22T01:52:20;11.90;52.40
78647;DHT22;67961;43.460;3.762;2023-11-22T01:54:46;11.90;52.40
78647;DHT22;67961;43.460;3.762;2023-11-22T01:57:12;11.80;52.30
78647;DHT22;67961;43.460;3.762;2023-11-22T01:59:38;11.80;52.10
78647;DHT22;67961;43.460;3.762;2023-11-22T02:02:04;11.80;52.60
78647;DHT22;67961;43.460;3.762;2023-11-22T02:04:30;11.80;52.10
78647;DHT22;67961;43.460;3.762;2023-11-22T02:06:55;11.80;52.80
78647;DHT22;67961;43.460;3.762;2023-11-22T02:09:21;11.80;52.50
78647;DHT22;67961;43.460;3.762;2023-11-22T02:11:47;11.80;52.70
78647;DHT22;67961;43.460;3.762;2023-11-22T02:14:14;11.80;52.70
78647;DHT22;67961;43.460;3.762;2023-11-22T02:16:41;11.80;52.60
78647;DHT22;67961;43.460;3.762;2023-11-22T02:19:08;11.80;52.80
78647;DHT22;67961;43.460;3.762;2023-11-22T02:21:38;11.70;52.60
78647;DHT22;67961;43.460;3.762;2023-11-22T02:24:04;11.70;52.90
78647;DHT22;67961;43.460;3.762;2023-11-22T02:26:30;11.80;53.00
78647;DHT22;67961;43.460;3.762;2023-11-22T02:28:56;11.80;52.90
78647;DHT22;67961;43.460;3.762;2023-11-22T02:31:22;11.80;53.10
78647;DHT22;67961;43.460;3.762;2023-11-22T02:33:49;11.80;53.00
78647;DHT22;67961;43.460;3.762;2023-11-22T02:36:15;11.80;52.80
78647;DHT22;67961;43.460;3.762;2023-11-22T02:38:41;11.80;52.90
78647;DHT22;67961;43.460;3.762;2023-11-22T02:41:07;11.70;53.00
78647;DHT22;67961;43.460;3.762;2023-11-22T02:43:34;11.70;53.10
78647;DHT22;67961;43.460;3.762;2023-11-22T02:46:01;11.70;52.90
78647;DHT22;67961;43.460;3.762;2023-11-22T02:48:28;11.70;53.10
78647;DHT22;67961;43.460;3.762;2023-11-22T02:50:54;11.70;52.90
78647;DHT22;67961;43.460;3.762;2023-11-22T02:53:20;11.70;53.00
78647;DHT22;67961;43.460;3.762;2023-11-22T02:55:46;11.70;53.20
78647;DHT22;67961;43.460;3.762;2023-11-22T02:58:12;11.70;53.20
78647;DHT22;67961;43.460;3.762;2023-11-22T03:00:40;11.70;53.20
78647;DHT22;67961;43.460;3.762;2023-11-22T03:03:06;11.70;53.30
78647;DHT22;67961;43.460;3.762;2023-11-22T03:05:35;11.70;52.80
78647;DHT22;67961;43.460;3.762;2023-11-22T03:08:06;11.70;53.10
78647;DHT22;67961;43.460;3.762;2023-11-22T03:10:33;11.70;52.80
78647;DHT22;67961;43.460;3.762;2023-11-22T03:12:59;11.70;52.70
78647;DHT22;67961;43.460;3.762;2023-11-22T03:15:25;11.70;52.70
78647;DHT22;67961;43.460;3.762;2023-11-22T03:17:51;11.50;52.50
78647;DHT22;67961;43.460;3.762;2023-11-22T03:20:16;11.60;53.10
78647;DHT22;67961;43.460;3.762;2023-11-22T03:22:42;11.50;52.70
78647;DHT22;67961;43.460;3.762;2023-11-22T03:25:11;11.50;53.10
78647;DHT22;67961;43.460;3.762;2023-11-22T03:27:37;11.50;53.30
78647;DHT22;67961;43.460;3.762;2023-11-22T03:30:04;11.50;53.00
78647;DHT22;67961;43.460;3.762;2023-11-22T03:32:30;11.50;52.90
78647;DHT22;67961;43.460;3.762;2023-11-22T03:34:56;11.50;53.00
78647;DHT22;67961;43.460;3.762;2023-11-22T03:37:23;11.50;52.60
78647;DHT22;67961;43.460;3.762;2023-11-22T03:39:48;11.50;53.00
78647;DHT22;67961;43.460;3.762;2023-11-22T03:42:17;11.50;52.80
78647;DHT22;67961;43.460;3.762;2023-11-22T03:44:43;11.50;52.60
78647;DHT22;67961;43.460;3.762;2023-11-22T03:47:10;11.50;52.70
78647;DHT22;67961;43.460;3.762;2023-11-22T03:49:38;11.50;52.60
78647;DHT22;67961;43.460;3.762;2023-11-22T03:52:03;11.50;52.90
78647;DHT22;67961;43.460;3.762;2023-11-22T03:54:29;11.50;52.90
78647;DHT22;67961;43.460;3.762;2023-11-22T03:56:55;11.50;52.70
78647;DHT22;67961;43.460;3.762;2023-11-22T03:59:21;11.50;52.20
78647;DHT22;67961;43.460;3.762;2023-11-22T04:01:47;11.40;53.30
78647;DHT22;67961;43.460;3.762;2023-11-22T04:04:13;11.40;53.00
78647;DHT22;67961;43.460;3.762;2023-11-22T04:06:39;11.40;53.10
78647;DHT22;67961;43.460;3.762;2023-11-22T04:09:05;11.40;52.30
78647;DHT22;67961;43.460;3.762;2023-11-22T04:11:33;11.40;52.60
78647;DHT22;67961;43.460;3.762;2023-11-22T04:14:00;11.30;52.80
78647;DHT22;67961;43.460;3.762;2023-11-22T04:16:28;11.30;52.70
78647;DHT22;67961;43.460;3.762;2023-11-22T04:18:54;11.30;52.50
78647;DHT22;67961;43.460;3.762;2023-11-22T04:21:19;11.30;52.30
78647;DHT22;67961;43.460;3.762;2023-11-22T04:23:45;11.30;52.70
78647;DHT22;67961;43.460;3.762;2023-11-22T04:26:10;11.30;52.50
78647;DHT22;67961;43.460;3.762;2023-11-22T04:28:36;11.30;53.00
78647;DHT22;67961;43.460;3.762;2023-11-22T04:31:02;11.30;52.90
78647;DHT22;67961;43.460;3.762;2023-11-22T04:33:29;11.30;53.30
78647;DHT22;67961;43.460;3.762;2023-11-22T04:35:55;11.30;52.80
78647;DHT22;67961;43.460;3.762;2023-11-22T04:38:21;11.30;52.70
78647;DHT22;67961;43.460;3.762;2023-11-22T04:40:47;11.30;52.60
78647;DHT22;67961;43.460;3.762;2023-11-22T04:43:13;11.30;52.30
78647;DHT22;67961;43.460;3.762;2023-11-22T04:45:39;11.30;52.90
78647;DHT22;67961;43.460;3.762;2023-11-22T04:48:05;11.20;53.20
78647;DHT22;67961;43.460;3.762;2023-11-22T04:50:32;11.30;52.70
78647;DHT22;67961;43.460;3.762;2023-11-22T04:52:57;11.30;53.00
78647;DHT22;67961;43.460;3.762;2023-11-22T04:55:23;11.30;53.00
78647;DHT22;67961;43.460;3.762;2023-11-22T04:57:49;11.30;52.90
78647;DHT22;67961;43.460;3.762;2023-11-22T05:00:15;11.30;53.20
78647;DHT22;67961;43.460;3.762;2023-11-22T05:02:42;11.30;53.10
78647;DHT22;67961;43.460;3.762;2023-11-22T05:05:08;11.30;52.80
78647;DHT22;67961;43.460;3.762;2023-11-22T05:07:36;11.30;53.20
78647;DHT22;67961;43.460;3.762;2023-11-22T05:10:02;11.30;53.10
78647;DHT22;67961;43.460;3.762;2023-11-22T05:12:28;11.30;53.20
78647;DHT22;67961;43.460;3.762;2023-11-22T05:14:54;11.30;53.10
78647;DHT22;67961;43.460;3.762;2023-11-22T05:17:19;11.30;53.10
78647;DHT22;67961;43.460;3.762;2023-11-22T05:19:45;11.30;53.10
78647;DHT22;67961;43.460;3.762;2023-11-22T05:22:11;11.30;53.30
78647;DHT22;67961;43.460;3.762;2023-11-22T05:24:36;11.30;53.40
78647;DHT22;67961;43.460;3.762;2023-11-22T05:27:09;11.20;53.70
78647;DHT22;67961;43.460;3.762;2023-11-22T05:29:35;11.20;53.80
78647;DHT22;67961;43.460;3.762;2023-11-22T05:32:02;11.20;53.90
78647;DHT22;67961;43.460;3.762;2023-11-22T05:34:28;11.30;53.80
78647;DHT22;67961;43.460;3.762;2023-11-22T05:36:54;11.30;53.90
78647;DHT22;67961;43.460;3.762;2023-11-22T05:39:20;11.30;54.00
78647;DHT22;67961;43.460;3.762;2023-11-22T05:41:48;11.30;54.10
78647;DHT22;67961;43.460;3.762;2023-11-22T05:44:14;11.30;53.80
78647;DHT22;67961;43.460;3.762;2023-11-22T05:46:40;11.30;54.10
78647;DHT22;67961;43.460;3.762;2023-11-22T05:49:06;11.40;53.90
78647;DHT22;67961;43.460;3.762;2023-11-22T05:51:32;11.40;53.90
78647;DHT22;67961;43.460;3.762;2023-11-22T05:53:59;11.40;54.00
78647;DHT22;67961;43.460;3.762;2023-11-22T05:56:25;11.40;53.90
78647;DHT22;67961;43.460;3.762;2023-11-22T05:58:50;11.40;53.90
78647;DHT22;67961;43.460;3.762;2023-11-22T06:01:16;11.40;54.00
78647;DHT22;67961;43.460;3.762;2023-11-22T06:03:42;11.40;53.70
78647;DHT22;67961;43.460;3.762;2023-11-22T06:06:07;11.40;53.90
78647;DHT22;67961;43.460;3.762;2023-11-22T06:08:33;11.40;54.00
78647;DHT22;67961;43.460;3.762;2023-11-22T06:10:59;11.50;53.80
78647;DHT22;67961;43.460;3.762;2023-11-22T06:13:26;11.40;53.70
78647;DHT22;67961;43.460;3.762;2023-11-22T06:15:51;11.50;53.70
78647;DHT22;67961;43.460;3.762;2023-11-22T06:18:17;11.50;53.70
78647;DHT22;67961;43.460;3.762;2023-11-22T06:20:44;11.50;53.80
78647;DHT22;67961;43.460;3.762;2023-11-22T06:23:10;11.50;53.80
78647;DHT22;67961;43.460;3.762;2023-11-22T06:25:36;11.50;53.60
78647;DHT22;67961;43.460;3.762;2023-11-22T06:28:02;11.50;53.70
78647;DHT22;67961;43.460;3.762;2023-11-22T06:30:28;11.50;53.50
78647;DHT22;67961;43.460;3.762;2023-11-22T06:32:56;11.50;53.60
78647;DHT22;67961;43.460;3.762;2023-11-22T06:35:21;11.50;53.60
78647;DHT22;67961;43.460;3.762;2023-11-22T06:37:47;11.50;53.40
78647;DHT22;67961;43.460;3.762;2023-11-22T06:40:13;11.50;53.50
78647;DHT22;67961;43.460;3.762;2023-11-22T06:42:43;11.50;53.40
78647;DHT22;67961;43.460;3.762;2023-11-22T06:45:09;11.50;53.20
78647;DHT22;67961;43.460;3.762;2023-11-22T06:47:41;11.50;53.10
78647;DHT22;67961;43.460;3.762;2023-11-22T06:50:08;11.50;53.10
78647;DHT22;67961;43.460;3.762;2023-11-22T06:52:41;11.50;53.00
78647;DHT22;67961;43.460;3.762;2023-11-22T06:55:08;11.50;52.70
78647;DHT22;67961;43.460;3.762;2023-11-22T06:57:34;11.50;52.70
78647;DHT22;67961;43.460;3.762;2023-11-22T07:00:00;11.70;52.60
78647;DHT22;67961;43.460;3.762;2023-11-22T07:02:32;11.70;52.60
78647;DHT22;67961;43.460;3.762;2023-11-22T07:04:58;11.70;52.60
78647;DHT22;67961;43.460;3.762;2023-11-22T07:07:28;11.80;52.20
78647;DHT22;67961;43.460;3.762;2023-11-22T07:09:55;11.90;51.70
78647;DHT22;67961;43.460;3.762;2023-11-22T07:12:24;11.90;51.90
78647;DHT22;67961;43.460;3.762;2023-11-22T07:14:50;11.90;51.70
78647;DHT22;67961;43.460;3.762;2023-11-22T07:17:16;11.90;51.70
78647;DHT22;67961;43.460;3.762;2023-11-22T07:19:43;12.00;52.10
78647;DHT22;67961;43.460;3.762;2023-11-22T07:22:21;12.00;51.90
78647;DHT22;67961;43.460;3.762;2023-11-22T07:24:48;12.00;52.20
78647;DHT22;67961;43.460;3.762;2023-11-22T07:27:17;12.00;52.20
78647;DHT22;67961;43.460;3.762;2023-11-22T07:29:44;12.10;52.30
78647;DHT22;67961;43.460;3.762;2023-11-22T07:32:10;12.10;52.30
78647;DHT22;67961;43.460;3.762;2023-11-22T07:34:37;12.10;52.20
78647;DHT22;67961;43.460;3.762;2023-11-22T07:37:03;12.10;52.30
78647;DHT22;67961;43.460;3.762;2023-11-22T07:39:29;12.10;52.20
78647;DHT22;67961;43.460;3.762;2023-11-22T07:41:55;12.10;52.20
78647;DHT22;67961;43.460;3.762;2023-11-22T07:44:23;12.10;52.30
78647;DHT22;67961;43.460;3.762;2023-11-22T07:46:50;12.20;52.50
78647;DHT22;67961;43.460;3.762;2023-11-22T07:49:17;12.20;52.10
78647;DHT22;67961;43.460;3.762;2023-11-22T07:51:44;12.20;52.10
78647;DHT22;67961;43.460;3.762;2023-11-22T07:54:10;12.20;51.60
78647;DHT22;67961;43.460;3.762;2023-11-22T07:56:41;12.30;52.00
78647;DHT22;67961;43.460;3.762;2023-11-22T07:59:08;12.30;51.40
78647;DHT22;67961;43.460;3.762;2023-11-22T08:01:34;12.30;51.20
78647;DHT22;67961;43.460;3.762;2023-11-22T08:04:00;12.40;51.40
78647;DHT22;67961;43.460;3.762;2023-11-22T08:06:25;12.50;51.00
78647;DHT22;67961;43.460;3.762;2023-11-22T08:08:52;12.50;49.90
78647;DHT22;67961;43.460;3.762;2023-11-22T08:11:18;12.50;49.70
78647;DHT22;67961;43.460;3.762;2023-11-22T08:13:44;12.60;50.20
78647;DHT22;67961;43.460;3.762;2023-11-22T08:16:11;12.70;50.10
78647;DHT22;67961;43.460;3.762;2023-11-22T08:18:40;12.80;49.70
78647;DHT22;67961;43.460;3.762;2023-11-22T08:21:08;12.80;48.70
78647;DHT22;67961;43.460;3.762;2023-11-22T08:23:34;12.90;49.10
78647;DHT22;67961;43.460;3.762;2023-11-22T08:26:00;13.00;48.30
78647;DHT22;67961;43.460;3.762;2023-11-22T08:28:26;13.10;48.90
78647;DHT22;67961;43.460;3.762;2023-11-22T08:30:52;13.10;48.90
78647;DHT22;67961;43.460;3.762;2023-11-22T08:33:18;13.20;48.50
78647;DHT22;67961;43.460;3.762;2023-11-22T08:35:44;13.30;48.20
78647;DHT22;67961;43.460;3.762;2023-11-22T08:38:16;13.30;47.90
78647;DHT22;67961;43.460;3.762;2023-11-22T08:40:42;13.50;48.40
78647;DHT22;67961;43.460;3.762;2023-11-22T08:43:07;13.60;48.20
78647;DHT22;67961;43.460;3.762;2023-11-22T08:45:33;13.70;49.00
78647;DHT22;67961;43.460;3.762;2023-11-22T08:48:00;13.90;47.90
78647;DHT22;67961;43.460;3.762;2023-11-22T08:50:25;14.00;47.30
78647;DHT22;67961;43.460;3.762;2023-11-22T08:52:51;14.10;48.00
78647;DHT22;67961;43.460;3.762;2023-11-22T08:55:19;14.20;46.30
78647;DHT22;67961;43.460;3.762;2023-11-22T08:57:48;14.40;47.00
78647;DHT22;67961;43.460;3.762;2023-11-22T09:00:14;14.40;46.20
78647;DHT22;67961;43.460;3.762;2023-11-22T09:02:40;14.50;45.80
78647;DHT22;67961;43.460;3.762;2023-11-22T09:05:06;14.60;45.90
78647;DHT22;67961;43.460;3.762;2023-11-22T09:07:34;14.70;45.70
78647;DHT22;67961;43.460;3.762;2023-11-22T09:10:02;14.70;45.70
78647;DHT22;67961;43.460;3.762;2023-11-22T09:12:35;14.80;45.80
78647;DHT22;67961;43.460;3.762;2023-11-22T09:15:02;14.90;45.20
78647;DHT22;67961;43.460;3.762;2023-11-22T09:17:30;14.90;45.40
78647;DHT22;67961;43.460;3.762;2023-11-22T09:19:56;15.00;44.20
78647;DHT22;67961;43.460;3.762;2023-11-22T09:22:23;15.00;44.20
78647;DHT22;67961;43.460;3.762;2023-11-22T09:24:51;15.10;43.80
78647;DHT22;67961;43.460;3.762;2023-11-22T09:27:17;15.20;44.00
78647;DHT22;67961;43.460;3.762;2023-11-22T09:29:43;15.30;44.20
78647;DHT22;67961;43.460;3.762;2023-11-22T09:32:10;15.30;43.70
78647;DHT22;67961;43.460;3.762;2023-11-22T09:34:36;15.40;43.60
78647;DHT22;67961;43.460;3.762;2023-11-22T09:37:01;15.50;43.10
78647;DHT22;67961;43.460;3.762;2023-11-22T09:39:27;15.50;43.60
78647;DHT22;67961;43.460;3.762;2023-11-22T09:41:53;15.60;43.70
78647;DHT22;67961;43.460;3.762;2023-11-22T09:44:19;15.60;43.50
78647;DHT22;67961;43.460;3.762;2023-11-22T09:46:48;15.70;42.50
78647;DHT22;67961;43.460;3.762;2023-11-22T09:49:20;15.80;42.30
78647;DHT22;67961;43.460;3.762;2023-11-22T09:51:48;15.80;41.70
78647;DHT22;67961;43.460;3.762;2023-11-22T09:54:18;15.80;41.80
78647;DHT22;67961;43.460;3.762;2023-11-22T09:56:45;15.90;42.60
78647;DHT22;67961;43.460;3.762;2023-11-22T09:59:18;16.00;42.40
78647;DHT22;67961;43.460;3.762;2023-11-22T10:01:44;16.00;42.50
78647;DHT22;67961;43.460;3.762;2023-11-22T10:04:09;16.00;42.10
78647;DHT22;67961;43.460;3.762;2023-11-22T10:06:35;16.00;42.90
78647;DHT22;67961;43.460;3.762;2023-11-22T10:09:04;16.00;42.40
78647;DHT22;67961;43.460;3.762;2023-11-22T10:11:36;16.10;42.60
78647;DHT22;67961;43.460;3.762;2023-11-22T10:14:04;16.10;42.70
78647;DHT22;67961;43.460;3.762;2023-11-22T10:16:30;16.20;41.80
78647;DHT22;67961;43.460;3.762;2023-11-22T10:18:55;16.20;42.50
78647;DHT22;67961;43.460;3.762;2023-11-22T10:21:25;16.30;42.00
78647;DHT22;67961;43.460;3.762;2023-11-22T10:23:56;16.40;41.00
78647;DHT22;67961;43.460;3.762;2023-11-22T10:26:22;16.40;40.70
78647;DHT22;67961;43.460;3.762;2023-11-22T10:28:56;16.40;40.60
78647;DHT22;67961;43.460;3.762;2023-11-22T10:31:23;16.40;40.40
78647;DHT22;67961;43.460;3.762;2023-11-22T10:33:50;16.40;40.70
78647;DHT22;67961;43.460;3.762;2023-11-22T10:36:16;16.40;40.50
78647;DHT22;67961;43.460;3.762;2023-11-22T10:38:47;16.40;40.80
78647;DHT22;67961;43.460;3.762;2023-11-22T10:41:13;16.40;40.90
78647;DHT22;67961;43.460;3.762;2023-11-22T10:43:39;16.40;40.60
78647;DHT22;67961;43.460;3.762;2023-11-22T10:46:07;16.50;40.70
78647;DHT22;67961;43.460;3.762;2023-11-22T10:48:35;16.40;40.70
78647;DHT22;67961;43.460;3.762;2023-11-22T10:51:03;16.40;40.60
78647;DHT22;67961;43.460;3.762;2023-11-22T10:53:35;16.40;41.00
78647;DHT22;67961;43.460;3.762;2023-11-22T10:56:09;16.40;41.00
78647;DHT22;67961;43.460;3.762;2023-11-22T10:58:42;16.50;40.80
78647;DHT22;67961;43.460;3.762;2023-11-22T11:01:10;16.50;41.20
78647;DHT22;67961;43.460;3.762;2023-11-22T11:03:37;16.50;41.40
78647;DHT22;67961;43.460;3.762;2023-11-22T11:06:08;16.50;41.50
78647;DHT22;67961;43.460;3.762;2023-11-22T11:08:38;16.60;41.40
78647;DHT22;67961;43.460;3.762;2023-11-22T11:11:05;16.60;41.50
78647;DHT22;67961;43.460;3.762;2023-11-22T11:13:31;16.60;41.20
78647;DHT22;67961;43.460;3.762;2023-11-22T11:15:58;16.60;41.50
78647;DHT22;67961;43.460;3.762;2023-11-22T11:18:25;16.60;41.60
78647;DHT22;67961;43.460;3.762;2023-11-22T11:20:55;16.60;41.70
78647;DHT22;67961;43.460;3.762;2023-11-22T11:23:23;16.70;41.70
78647;DHT22;67961;43.460;3.762;2023-11-22T11:25:59;16.70;41.60
78647;DHT22;67961;43.460;3.762;2023-11-22T11:28:44;16.70;41.50
78647;DHT22;67961;43.460;3.762;2023-11-22T11:31:10;16.70;40.70
78647;DHT22;67961;43.460;3.762;2023-11-22T11:33:53;16.70;40.80
78647;DHT22;67961;43.460;3.762;2023-11-22T11:36:28;16.70;40.80
78647;DHT22;67961;43.460;3.762;2023-11-22T11:39:03;16.80;40.30
78647;DHT22;67961;43.460;3.762;2023-11-22T11:41:34;16.80;40.50
78647;DHT22;67961;43.460;3.762;2023-11-22T11:44:03;16.80;40.30
78647;DHT22;67961;43.460;3.762;2023-11-22T11:46:30;16.80;40.90
78647;DHT22;67961;43.460;3.762;2023-11-22T11:48:56;16.70;41.30
78647;DHT22;67961;43.460;3.762;2023-11-22T11:51:26;16.70;41.50
78647;DHT22;67961;43.460;3.762;2023-11-22T11:53:53;16.80;41.70
78647;DHT22;67961;43.460;3.762;2023-11-22T11:56:19;16.80;41.40
78647;DHT22;67961;43.460;3.762;2023-11-22T11:58:47;16.80;41.20
78647;DHT22;67961;43.460;3.762;2023-11-22T12:01:15;16.80;41.20
78647;DHT22;67961;43.460;3.762;2023-11-22T12:03:46;16.70;40.90
78647;DHT22;67961;43.460;3.762;2023-11-22T12:06:18;16.70;40.90
78647;DHT22;67961;43.460;3.762;2023-11-22T12:08:47;16.70;41.60
78647;DHT22;67961;43.460;3.762;2023-11-22T12:11:15;16.70;41.20
78647;DHT22;67961;43.460;3.762;2023-11-22T12:13:43;16.80;41.40
78647;DHT22;67961;43.460;3.762;2023-11-22T12:16:18;16.80;41.40
78647;DHT22;67961;43.460;3.762;2023-11-22T12:18:48;16.90;42.30
78647;DHT22;67961;43.460;3.762;2023-11-22T12:21:16;16.90;40.90
78647;DHT22;67961;43.460;3.762;2023-11-22T12:23:43;16.90;40.90
78647;DHT22;67961;43.460;3.762;2023-11-22T12:26:14;16.90;40.90
78647;DHT22;67961;43.460;3.762;2023-11-22T12:28:47;16.90;40.10
78647;DHT22;67961;43.460;3.762;2023-11-22T12:31:16;16.80;40.60
78647;DHT22;67961;43.460;3.762;2023-11-22T12:33:42;16.70;40.10
78647;DHT22;67961;43.460;3.762;2023-11-22T12:36:09;16.70;40.10
78647;DHT22;67961;43.460;3.762;2023-11-22T12:38:36;16.60;40.20
78647;DHT22;67961;43.460;3.762;2023-11-22T12:41:02;16.60;40.50
78647;DHT22;67961;43.460;3.762;2023-11-22T12:43:29;16.60;40.60
78647;DHT22;67961;43.460;3.762;2023-11-22T12:46:06;16.70;41.00
78647;DHT22;67961;43.460;3.762;2023-11-22T12:48:33;16.70;40.50
78647;DHT22;67961;43.460;3.762;2023-11-22T12:50:59;16.70;40.30
78647;DHT22;67961;43.460;3.762;2023-11-22T12:53:26;16.80;39.60
78647;DHT22;67961;43.460;3.762;2023-11-22T12:55:54;16.70;39.60
78647;DHT22;67961;43.460;3.762;2023-11-22T12:58:24;16.70;39.90
78647;DHT22;67961;43.460;3.762;2023-11-22T13:00:52;16.70;39.80
78647;DHT22;67961;43.460;3.762;2023-11-22T13:03:24;16.60;40.10
78647;DHT22;67961;43.460;3.762;2023-11-22T13:05:50;16.70;40.30
78647;DHT22;67961;43.460;3.762;2023-11-22T13:08:18;16.70;40.60
78647;DHT22;67961;43.460;3.762;2023-11-22T13:10:47;16.70;40.10
78647;DHT22;67961;43.460;3.762;2023-11-22T13:13:14;16.70;40.20
78647;DHT22;67961;43.460;3.762;2023-11-22T13:15:40;16.70;40.00
78647;DHT22;67961;43.460;3.762;2023-11-22T13:18:06;16.70;40.30
78647;DHT22;67961;43.460;3.762;2023-11-22T13:20:33;16.60;40.30
78647;DHT22;67961;43.460;3.762;2023-11-22T13:22:59;16.70;40.40
78647;DHT22;67961;43.460;3.762;2023-11-22T13:25:25;16.70;40.60
78647;DHT22;67961;43.460;3.762;2023-11-22T13:27:51;16.70;40.20
78647;DHT22;67961;43.460;3.762;2023-11-22T13:30:19;16.60;40.30
78647;DHT22;67961;43.460;3.762;2023-11-22T13:32:55;16.60;40.40
78647;DHT22;67961;43.460;3.762;2023-11-22T13:35:27;16.60;40.40
78647;DHT22;67961;43.460;3.762;2023-11-22T13:37:59;16.60;40.30
78647;DHT22;67961;43.460;3.762;2023-11-22T13:40:27;16.60;40.20
78647;DHT22;67961;43.460;3.762;2023-11-22T13:42:56;16.60;40.60
78647;DHT22;67961;43.460;3.762;2023-11-22T13:45:22;16.50;40.90
78647;DHT22;67961;43.460;3.762;2023-11-22T13:47:50;16.50;39.80
78647;DHT22;67961;43.460;3.762;2023-11-22T13:50:17;16.40;39.90
78647;DHT22;67961;43.460;3.762;2023-11-22T13:52:54;16.20;40.20
78647;DHT22;67961;43.460;3.762;2023-11-22T13:55:21;16.10;40.40
78647;DHT22;67961;43.460;3.762;2023-11-22T13:57:55;16.10;40.30
78647;DHT22;67961;43.460;3.762;2023-11-22T14:00:23;16.00;41.20
78647;DHT22;67961;43.460;3.762;2023-11-22T14:02:51;16.00;41.30
78647;DHT22;67961;43.460;3.762;2023-11-22T14:05:17;16.00;41.40
78647;DHT22;67961;43.460;3.762;2023-11-22T14:07:43;16.00;41.60
78647;DHT22;67961;43.460;3.762;2023-11-22T14:10:10;16.00;41.60
78647;DHT22;67961;43.460;3.762;2023-11-22T14:12:37;16.00;42.50
78647;DHT22;67961;43.460;3.762;2023-11-22T14:15:03;16.00;42.40
78647;DHT22;67961;43.460;3.762;2023-11-22T14:17:30;16.10;41.70
78647;DHT22;67961;43.460;3.762;2023-11-22T14:19:56;16.10;40.70
78647;DHT22;67961;43.460;3.762;2023-11-22T14:22:22;16.00;40.90
78647;DHT22;67961;43.460;3.762;2023-11-22T14:24:52;16.00;40.90
78647;DHT22;67961;43.460;3.762;2023-11-22T14:27:18;16.00;41.00
78647;DHT22;67961;43.460;3.762;2023-11-22T14:29:45;16.00;41.20
78647;DHT22;67961;43.460;3.762;2023-11-22T14:32:14;15.90;41.30
78647;DHT22;67961;43.460;3.762;2023-11-22T14:34:40;16.00;41.60
78647;DHT22;67961;43.460;3.762;2023-11-22T14:37:09;16.00;41.60
78647;DHT22;67961;43.460;3.762;2023-11-22T14:39:35;15.90;41.70
78647;DHT22;67961;43.460;3.762;2023-11-22T14:42:01;15.90;41.80
78647;DHT22;67961;43.460;3.762;2023-11-22T14:44:27;16.00;41.60
78647;DHT22;67961;43.460;3.762;2023-11-22T14:46:52;16.00;42.10
78647;DHT22;67961;43.460;3.762;2023-11-22T14:49:18;16.00;41.40
78647;DHT22;67961;43.460;3.762;2023-11-22T14:51:46;15.90;41.30
78647;DHT22;67961;43.460;3.762;2023-11-22T14:54:12;15.80;41.40
78647;DHT22;67961;43.460;3.762;2023-11-22T14:56:38;15.80;43.20
78647;DHT22;67961;43.460;3.762;2023-11-22T14:59:05;15.70;42.50
78647;DHT22;67961;43.460;3.762;2023-11-22T15:01:31;15.60;44.00
78647;DHT22;67961;43.460;3.762;2023-11-22T15:03:57;15.60;43.30
78647;DHT22;67961;43.460;3.762;2023-11-22T15:06:22;15.60;42.70
78647;DHT22;67961;43.460;3.762;2023-11-22T15:08:48;15.60;41.60
78647;DHT22;67961;43.460;3.762;2023-11-22T15:11:16;15.50;41.60
78647;DHT22;67961;43.460;3.762;2023-11-22T15:13:43;15.50;42.00
78647;DHT22;67961;43.460;3.762;2023-11-22T15:16:10;15.50;41.60
78647;DHT22;67961;43.460;3.762;2023-11-22T15:18:41;15.50;41.90
78647;DHT22;67961;43.460;3.762;2023-11-22T15:21:07;15.40;42.10
78647;DHT22;67961;43.460;3.762;2023-11-22T15:23:33;15.40;42.20
78647;DHT22;67961;43.460;3.762;2023-11-22T15:25:59;15.30;42.00
78647;DHT22;67961;43.460;3.762;2023-11-22T15:28:25;15.30;42.50